createdAt,value
2018-07-07T00:00:22.271Z,10.63
2018-07-07T00:02:49.639Z,21.40
2018-07-07T00:05:17.074Z,14.30
2018-07-07T00:07:44.526Z,12.70
2018-07-07T00:10:12.754Z,13.40
2018-07-07T00:12:40.727Z,7.80
2018-07-07T00:15:09.951Z,15.63
2018-07-07T00:17:37.362Z,10.70
2018-07-07T00:20:04.783Z,14.50
2018-07-07T00:22:32.214Z,21.50
2018-07-07T00:24:59.654Z,12.90
2018-07-07T00:27:27.043Z,13.97
2018-07-07T00:29:54.506Z,14.53
2018-07-07T00:32:21.890Z,23.77
2018-07-07T00:34:49.348Z,22.43
2018-07-07T00:37:16.723Z,8.20
2018-07-07T00:39:44.183Z,14.23
2018-07-07T00:42:11.731Z,12.60
2018-07-07T00:44:39.114Z,14.03
2018-07-07T00:47:06.590Z,10.80
2018-07-07T00:49:33.966Z,12.07
2018-07-07T00:52:01.327Z,7.60
2018-07-07T00:54:28.688Z,18.03
2018-07-07T00:56:56.389Z,13.33
2018-07-07T00:59:23.931Z,11.33
2018-07-07T01:01:51.360Z,8.73
2018-07-07T01:04:18.789Z,15.47
2018-07-07T01:06:46.234Z,21.20
2018-07-07T01:09:13.884Z,9.67
2018-07-07T01:11:41.391Z,10.00
2018-07-07T01:14:08.990Z,13.80
2018-07-07T01:16:36.732Z,10.53
2018-07-07T01:19:04.314Z,22.50
2018-07-07T01:21:31.675Z,8.87
2018-07-07T01:23:59.079Z,18.37
2018-07-07T01:26:26.538Z,12.90
2018-07-07T01:28:53.978Z,12.87
2018-07-07T01:31:21.376Z,15.30
2018-07-07T01:33:48.838Z,16.10
2018-07-07T01:36:16.357Z,14.87
2018-07-07T01:38:43.791Z,18.47
2018-07-07T01:41:11.230Z,9.37
2018-07-07T01:43:38.679Z,12.50
2018-07-07T01:46:06.083Z,21.97
2018-07-07T01:48:33.542Z,8.73
2018-07-07T01:51:00.903Z,21.57
2018-07-07T01:53:28.280Z,13.33
2018-07-07T01:55:55.751Z,21.43
2018-07-07T01:58:23.109Z,13.30
2018-07-07T02:00:50.471Z,12.03
2018-07-07T02:03:17.877Z,8.67
2018-07-07T02:05:45.924Z,26.43
2018-07-07T02:08:13.294Z,14.30
2018-07-07T02:10:40.794Z,18.50
2018-07-07T02:13:08.242Z,12.33
2018-07-07T02:15:35.614Z,14.07
2018-07-07T02:18:02.978Z,11.57
2018-07-07T02:20:30.351Z,13.53
2018-07-07T02:23:06.191Z,20.37
2018-07-07T02:25:33.625Z,13.50
2018-07-07T02:28:01.046Z,15.77
2018-07-07T02:30:28.401Z,15.60
2018-07-07T02:32:55.795Z,23.60
2018-07-07T02:35:23.245Z,17.13
2018-07-07T02:37:50.606Z,17.40
2018-07-07T02:40:18.012Z,15.17
2018-07-07T02:42:45.478Z,19.20
2018-07-07T02:45:12.930Z,22.80
2018-07-07T02:47:40.406Z,23.23
2018-07-07T02:50:07.779Z,20.70
2018-07-07T02:52:35.239Z,16.43
2018-07-07T02:55:02.624Z,13.70
2018-07-07T02:57:30.071Z,11.53
2018-07-07T02:59:57.433Z,12.50
2018-07-07T03:02:24.814Z,12.07
2018-07-07T03:04:52.174Z,14.30
2018-07-07T03:07:19.542Z,19.63
2018-07-07T03:09:46.914Z,10.73
2018-07-07T03:12:14.270Z,14.33
2018-07-07T03:14:41.647Z,28.23
2018-07-07T03:17:09.012Z,15.57
2018-07-07T03:19:36.387Z,14.13
2018-07-07T03:22:03.749Z,20.20
2018-07-07T03:24:31.116Z,29.43
2018-07-07T03:26:58.483Z,21.83
2018-07-07T03:29:25.847Z,18.67
2018-07-07T03:31:53.223Z,22.70
2018-07-07T03:34:20.578Z,18.50
2018-07-07T03:36:47.955Z,30.57
2018-07-07T03:39:15.315Z,18.77
2018-07-07T03:41:42.690Z,19.37
2018-07-07T03:44:10.056Z,19.27
2018-07-07T03:46:37.402Z,19.43
2018-07-07T03:49:04.804Z,19.43
2018-07-07T03:51:32.247Z,19.30
2018-07-07T03:53:59.678Z,16.03
2018-07-07T03:56:27.126Z,17.83
2018-07-07T03:58:55.575Z,17.87
2018-07-07T04:01:23.054Z,21.17
2018-07-07T04:03:50.507Z,11.37
2018-07-07T04:06:17.963Z,18.67
2018-07-07T04:08:46.493Z,20.57
2018-07-07T04:11:13.910Z,29.33
2018-07-07T04:13:41.390Z,16.53
2018-07-07T04:16:08.813Z,18.63
2018-07-07T04:18:36.331Z,32.30
2018-07-07T04:21:06.287Z,19.63
2018-07-07T04:23:34.256Z,20.13
2018-07-07T04:26:01.854Z,16.53
2018-07-07T04:28:29.792Z,20.03
2018-07-07T04:30:57.564Z,20.80
2018-07-07T04:33:25.528Z,20.77
2018-07-07T04:35:52.975Z,16.73
2018-07-07T04:38:20.340Z,17.33
2018-07-07T04:40:48.256Z,17.80
2018-07-07T04:43:16.275Z,21.83
2018-07-07T04:45:43.687Z,26.10
2018-07-07T04:48:11.132Z,14.73
2018-07-07T04:50:38.687Z,16.40
2018-07-07T04:53:06.255Z,12.27
2018-07-07T04:55:33.723Z,9.33
2018-07-07T04:58:01.187Z,14.20
2018-07-07T05:00:28.893Z,16.80
2018-07-07T05:02:56.535Z,17.00
2018-07-07T05:05:23.911Z,15.30
2018-07-07T05:07:51.400Z,21.60
2018-07-07T05:10:18.927Z,19.83
2018-07-07T05:12:47.310Z,16.60
2018-07-07T05:15:14.813Z,18.83
2018-07-07T05:17:42.211Z,20.13
2018-07-07T05:20:09.585Z,8.27
2018-07-07T05:22:37.034Z,23.03
2018-07-07T05:25:04.495Z,14.53
2018-07-07T05:27:32.015Z,13.77
2018-07-07T05:29:59.895Z,13.63
2018-07-07T05:32:27.320Z,11.53
2018-07-07T05:34:54.728Z,23.27
2018-07-07T05:37:22.329Z,16.87
2018-07-07T05:39:49.647Z,15.03
2018-07-07T05:42:17.131Z,13.50
2018-07-07T05:44:44.558Z,16.77
2018-07-07T05:47:12.022Z,16.20
2018-07-07T05:49:39.483Z,7.50
2018-07-07T05:52:06.926Z,9.27
2018-07-07T05:54:34.426Z,13.93
2018-07-07T05:57:01.855Z,9.83
2018-07-07T05:59:29.368Z,7.57
2018-07-07T06:01:57.054Z,18.80
2018-07-07T06:04:24.417Z,18.00
2018-07-07T06:06:51.874Z,9.67
2018-07-07T06:09:19.336Z,16.63
2018-07-07T06:11:46.791Z,12.20
2018-07-07T06:14:14.263Z,13.40
2018-07-07T06:16:41.712Z,10.00
2018-07-07T06:19:09.236Z,11.13
2018-07-07T06:21:36.636Z,8.77
2018-07-07T06:24:04.209Z,11.80
2018-07-07T06:26:31.647Z,10.70
2018-07-07T06:28:59.088Z,10.70
2018-07-07T06:31:26.850Z,6.80
2018-07-07T06:33:54.307Z,11.53
2018-07-07T06:36:21.779Z,7.03
2018-07-07T06:38:49.225Z,5.73
2018-07-07T06:41:16.691Z,6.00
2018-07-07T06:43:44.198Z,7.47
2018-07-07T06:46:12.093Z,9.17
2018-07-07T06:48:39.512Z,6.73
2018-07-07T06:51:06.931Z,8.33
2018-07-07T06:53:34.381Z,8.70
2018-07-07T06:56:01.839Z,8.40
2018-07-07T06:58:29.335Z,6.90
2018-07-07T07:00:56.759Z,12.40
2018-07-07T07:03:24.278Z,8.67
2018-07-07T07:05:51.672Z,9.20
2018-07-07T07:08:19.134Z,5.33
2018-07-07T07:10:46.582Z,10.50
2018-07-07T07:13:14.025Z,9.60
2018-07-07T07:15:41.408Z,6.30
2018-07-07T07:18:08.863Z,6.53
2018-07-07T07:20:36.315Z,6.73
2018-07-07T07:23:03.812Z,7.20
2018-07-07T07:25:31.194Z,12.43
2018-07-07T07:27:58.588Z,11.40
2018-07-07T07:30:26.048Z,8.53
2018-07-07T07:32:53.514Z,7.20
2018-07-07T07:35:20.993Z,6.90
2018-07-07T07:37:48.390Z,14.13
2018-07-07T07:40:15.771Z,6.73
2018-07-07T07:42:43.219Z,10.20
2018-07-07T07:45:10.663Z,6.70
2018-07-07T07:47:38.127Z,12.70
2018-07-07T07:50:05.675Z,5.50
2018-07-07T07:52:33.043Z,8.33
2018-07-07T07:55:00.520Z,5.90
2018-07-07T07:57:28.143Z,11.30
2018-07-07T07:59:55.823Z,11.90
2018-07-07T08:02:23.198Z,10.33
2018-07-07T08:04:50.663Z,12.13
2018-07-07T08:07:18.086Z,6.23
2018-07-07T08:09:45.588Z,8.70
2018-07-07T08:12:13.000Z,6.07
2018-07-07T08:14:40.467Z,7.30
2018-07-07T08:17:12.023Z,12.50
2018-07-07T08:19:42.460Z,8.03
2018-07-07T08:22:12.189Z,5.20
2018-07-07T08:24:42.251Z,5.77
2018-07-07T08:27:13.163Z,11.47
2018-07-07T08:29:40.558Z,7.07
2018-07-07T08:32:07.971Z,5.80
2018-07-07T08:34:35.461Z,9.13
2018-07-07T08:37:02.905Z,6.13
2018-07-07T08:39:30.773Z,6.57
2018-07-07T08:41:58.373Z,10.23
2018-07-07T08:44:25.779Z,7.33
2018-07-07T08:46:55.664Z,7.77
2018-07-07T08:49:26.096Z,5.60
2018-07-07T08:51:53.707Z,5.40
2018-07-07T08:54:21.086Z,9.87
2018-07-07T08:56:48.548Z,8.70
2018-07-07T08:59:15.934Z,4.13
2018-07-07T09:01:43.391Z,7.70
2018-07-07T09:04:10.798Z,7.50
2018-07-07T09:06:42.069Z,11.03
2018-07-07T09:09:09.763Z,10.00
2018-07-07T09:11:37.158Z,5.07
2018-07-07T09:14:04.605Z,7.97
2018-07-07T09:16:31.994Z,5.43
2018-07-07T09:18:59.391Z,3.67
2018-07-07T09:21:26.858Z,6.33
2018-07-07T09:23:54.324Z,9.87
2018-07-07T09:26:21.784Z,8.60
2018-07-07T09:28:49.252Z,4.20
2018-07-07T09:31:16.712Z,10.60
2018-07-07T09:33:44.083Z,6.90
2018-07-07T09:36:11.583Z,5.27
2018-07-07T09:38:39.066Z,7.27
2018-07-07T09:41:06.523Z,4.60
2018-07-07T09:43:33.962Z,7.60
2018-07-07T09:46:01.456Z,10.90
2018-07-07T09:48:28.948Z,5.57
2018-07-07T09:50:56.403Z,11.67
2018-07-07T09:53:23.839Z,6.27
2018-07-07T09:55:51.216Z,4.53
2018-07-07T09:58:18.676Z,9.57
2018-07-07T10:00:46.048Z,9.00
2018-07-07T10:03:13.427Z,4.97
2018-07-07T10:05:40.898Z,6.90
2018-07-07T10:08:08.888Z,6.43
2018-07-07T10:10:36.326Z,7.50
2018-07-07T10:13:04.486Z,7.47
2018-07-07T10:15:32.987Z,9.20
2018-07-07T10:18:00.409Z,6.50
2018-07-07T10:20:27.906Z,11.63
2018-07-07T10:22:55.363Z,7.13
2018-07-07T10:25:22.941Z,9.83
2018-07-07T10:27:50.560Z,5.57
2018-07-07T10:30:17.986Z,6.43
2018-07-07T10:32:46.547Z,9.93
2018-07-07T10:35:13.995Z,9.33
2018-07-07T10:37:41.350Z,9.10
2018-07-07T10:40:08.762Z,5.90
2018-07-07T10:42:36.234Z,7.93
2018-07-07T10:45:03.721Z,4.33
2018-07-07T10:47:31.274Z,7.80
2018-07-07T10:49:58.734Z,6.00
2018-07-07T10:52:26.263Z,9.60
2018-07-07T10:54:53.699Z,5.93
2018-07-07T10:57:21.113Z,11.83
2018-07-07T10:59:48.507Z,4.00
2018-07-07T11:02:15.980Z,5.83
2018-07-07T11:04:43.430Z,5.07
2018-07-07T11:07:10.818Z,4.80
2018-07-07T11:09:38.296Z,13.93
2018-07-07T11:12:05.894Z,7.57
2018-07-07T11:14:33.203Z,7.43
2018-07-07T11:17:00.590Z,7.37
2018-07-07T11:19:28.080Z,7.87
2018-07-07T11:21:55.520Z,12.50
2018-07-07T11:24:22.920Z,5.10
2018-07-07T11:26:50.502Z,10.50
2018-07-07T11:29:17.986Z,9.30
2018-07-07T11:31:45.427Z,9.23
2018-07-07T11:34:12.906Z,6.20
2018-07-07T11:36:40.549Z,9.57
2018-07-07T11:39:08.055Z,7.27
2018-07-07T11:41:35.755Z,6.57
2018-07-07T11:44:03.196Z,10.30
2018-07-07T11:46:30.646Z,6.70
2018-07-07T11:48:58.216Z,6.10
2018-07-07T11:51:25.972Z,9.00
2018-07-07T11:53:53.628Z,5.43
2018-07-07T11:56:21.044Z,11.87
2018-07-07T11:58:49.604Z,10.47
2018-07-07T12:01:17.002Z,6.33
2018-07-07T12:03:44.734Z,5.53
2018-07-07T12:06:12.151Z,7.03
2018-07-07T12:08:39.638Z,7.33
2018-07-07T12:11:07.003Z,7.50
2018-07-07T12:13:34.467Z,6.70
2018-07-07T12:16:01.930Z,3.70
2018-07-07T12:18:29.383Z,5.13
2018-07-07T12:20:56.838Z,7.53
2018-07-07T12:23:24.271Z,4.23
2018-07-07T12:25:51.702Z,6.47
2018-07-07T12:28:19.147Z,5.93
2018-07-07T12:30:46.548Z,6.20
2018-07-07T12:33:14.063Z,8.77
2018-07-07T12:35:41.502Z,6.87
2018-07-07T12:38:08.946Z,5.97
2018-07-07T12:40:36.481Z,5.30
2018-07-07T12:43:03.895Z,4.90
2018-07-07T12:45:31.335Z,3.93
2018-07-07T12:47:58.755Z,2.80
2018-07-07T12:50:26.238Z,6.13
2018-07-07T12:52:53.655Z,3.83
2018-07-07T12:55:21.135Z,4.57
2018-07-07T12:57:48.612Z,5.63
2018-07-07T13:00:16.074Z,3.97
2018-07-07T13:02:43.562Z,4.50
2018-07-07T13:05:11.089Z,2.30
2018-07-07T13:07:38.506Z,5.53
2018-07-07T13:10:05.970Z,3.00
2018-07-07T13:12:34.511Z,5.30
2018-07-07T13:15:02.047Z,4.17
2018-07-07T13:17:29.495Z,4.93
2018-07-07T13:19:56.954Z,6.13
2018-07-07T13:22:24.431Z,4.77
2018-07-07T13:24:51.912Z,5.97
2018-07-07T13:27:19.346Z,5.90
2018-07-07T13:29:46.735Z,5.90
2018-07-07T13:32:14.241Z,5.20
2018-07-07T13:34:41.690Z,4.90
2018-07-07T13:37:09.126Z,5.33
2018-07-07T13:39:38.676Z,6.83
2018-07-07T13:42:06.559Z,6.07
2018-07-07T13:44:34.012Z,7.63
2018-07-07T13:47:01.488Z,10.80
2018-07-07T13:49:28.926Z,3.90
2018-07-07T13:51:56.331Z,2.63
2018-07-07T13:54:23.787Z,4.97
2018-07-07T13:56:51.267Z,8.07
2018-07-07T13:59:18.810Z,6.90
2018-07-07T14:01:46.187Z,6.23
2018-07-07T14:04:13.534Z,4.87
2018-07-07T14:06:40.987Z,7.60
2018-07-07T14:09:08.983Z,7.33
2018-07-07T14:11:36.354Z,5.10
2018-07-07T14:14:03.738Z,5.63
2018-07-07T14:16:31.110Z,4.47
2018-07-07T14:18:58.578Z,8.83
2018-07-07T14:21:25.970Z,3.10
2018-07-07T14:23:53.410Z,5.60
2018-07-07T14:26:20.783Z,4.27
2018-07-07T14:28:49.672Z,7.07
2018-07-07T14:31:17.068Z,3.80
2018-07-07T14:33:44.582Z,4.23
2018-07-07T14:36:11.994Z,6.73
2018-07-07T14:38:39.403Z,3.60
2018-07-07T14:41:11.762Z,3.10
2018-07-07T14:43:44.858Z,3.80
2018-07-07T14:46:12.319Z,6.67
2018-07-07T14:48:39.688Z,4.23
2018-07-07T14:51:07.079Z,6.07
2018-07-07T14:53:34.542Z,10.07
2018-07-07T14:56:01.991Z,5.43
2018-07-07T14:58:29.470Z,3.10
2018-07-07T15:00:56.951Z,6.10
2018-07-07T15:03:24.422Z,5.27
2018-07-07T15:05:52.026Z,3.37
2018-07-07T15:08:19.463Z,4.30
2018-07-07T15:10:46.998Z,4.70
2018-07-07T15:13:14.404Z,4.63
2018-07-07T15:15:41.898Z,4.27
2018-07-07T15:18:09.451Z,5.23
2018-07-07T15:20:37.242Z,4.07
2018-07-07T15:23:04.901Z,3.33
2018-07-07T15:25:34.077Z,4.23
2018-07-07T15:28:01.578Z,4.40
2018-07-07T15:30:28.963Z,7.03
2018-07-07T15:32:56.451Z,4.67
2018-07-07T15:35:23.899Z,5.00
2018-07-07T15:37:51.436Z,4.67
2018-07-07T15:40:18.879Z,9.43
2018-07-07T15:42:46.338Z,3.63
2018-07-07T15:45:13.827Z,4.73
2018-07-07T15:47:41.262Z,12.03
2018-07-07T15:50:08.732Z,3.97
2018-07-07T15:52:36.223Z,5.73
2018-07-07T15:55:03.655Z,2.33
2018-07-07T15:57:31.135Z,6.97
2018-07-07T15:59:58.578Z,5.10
2018-07-07T16:02:25.973Z,11.40
2018-07-07T16:04:53.480Z,3.60
2018-07-07T16:07:20.991Z,8.60
2018-07-07T16:09:48.426Z,16.70
2018-07-07T16:12:15.903Z,6.20
2018-07-07T16:14:43.293Z,9.70
2018-07-07T16:17:10.667Z,7.97
2018-07-07T16:19:38.072Z,3.60
2018-07-07T16:22:05.629Z,4.67
2018-07-07T16:24:32.986Z,10.00
2018-07-07T16:27:00.434Z,12.00
2018-07-07T16:29:27.822Z,7.70
2018-07-07T16:31:55.294Z,8.33
2018-07-07T16:34:22.786Z,7.87
2018-07-07T16:36:50.218Z,8.53
2018-07-07T16:39:17.603Z,12.70
2018-07-07T16:41:45.100Z,8.07
2018-07-07T16:44:12.571Z,8.03
2018-07-07T16:46:40.035Z,4.30
2018-07-07T16:49:07.511Z,4.80
2018-07-07T16:51:34.983Z,4.57
2018-07-07T16:54:02.784Z,5.93
2018-07-07T16:56:30.276Z,9.33
2018-07-07T16:58:58.822Z,6.83
2018-07-07T17:01:26.368Z,4.67
2018-07-07T17:03:53.891Z,3.83
2018-07-07T17:06:21.339Z,2.20
2018-07-07T17:08:48.790Z,5.63
2018-07-07T17:11:16.223Z,4.87
2018-07-07T17:13:43.634Z,11.53
2018-07-07T17:16:11.120Z,6.00
2018-07-07T17:18:38.579Z,2.77
2018-07-07T17:21:06.058Z,4.00
2018-07-07T17:23:33.538Z,4.97
2018-07-07T17:26:00.959Z,3.67
2018-07-07T17:28:28.470Z,7.17
2018-07-07T17:30:57.418Z,2.80
2018-07-07T17:33:24.819Z,2.90
2018-07-07T17:35:52.307Z,5.87
2018-07-07T17:38:19.763Z,6.03
2018-07-07T17:40:47.335Z,4.50
2018-07-07T17:43:14.808Z,9.63
2018-07-07T17:45:42.286Z,3.00
2018-07-07T17:48:09.723Z,10.90
2018-07-07T17:50:37.222Z,4.43
2018-07-07T17:53:04.666Z,4.23
2018-07-07T17:55:32.148Z,2.83
2018-07-07T17:58:00.444Z,4.97
2018-07-07T18:00:27.924Z,3.30
2018-07-07T18:02:55.394Z,2.40
2018-07-07T18:05:22.815Z,6.77
2018-07-07T18:07:50.222Z,6.60
2018-07-07T18:10:17.685Z,4.00
2018-07-07T18:12:45.135Z,12.70
2018-07-07T18:15:12.670Z,7.87
2018-07-07T18:17:40.138Z,3.60
2018-07-07T18:20:07.569Z,5.60
2018-07-07T18:22:35.013Z,3.37
2018-07-07T18:25:02.670Z,4.37
2018-07-07T18:27:30.059Z,6.00
2018-07-07T18:29:57.547Z,3.90
2018-07-07T18:32:25.049Z,7.07
2018-07-07T18:34:52.494Z,3.20
2018-07-07T18:37:19.944Z,4.73
2018-07-07T18:39:47.391Z,6.60
2018-07-07T18:42:14.820Z,2.83
2018-07-07T18:44:42.178Z,1.90
2018-07-07T18:47:09.602Z,5.13
2018-07-07T18:49:37.349Z,5.17
2018-07-07T18:52:04.798Z,5.70
2018-07-07T18:54:32.274Z,3.03
2018-07-07T18:56:59.720Z,7.10
2018-07-07T18:59:27.146Z,2.50
2018-07-07T19:01:54.586Z,3.63
2018-07-07T19:04:22.055Z,5.50
2018-07-07T19:06:49.477Z,4.03
2018-07-07T19:09:16.959Z,5.43
2018-07-07T19:11:44.423Z,4.40
2018-07-07T19:14:11.907Z,3.30
2018-07-07T19:16:39.375Z,7.67
2018-07-07T19:19:06.848Z,5.63
2018-07-07T19:21:40.229Z,5.90
2018-07-07T19:24:13.184Z,7.60
2018-07-07T19:26:46.219Z,3.50
2018-07-07T19:29:13.586Z,4.80
2018-07-07T19:31:46.767Z,8.20
2018-07-07T19:34:19.702Z,2.03
2018-07-07T19:36:52.861Z,7.73
2018-07-07T19:39:20.263Z,3.43
2018-07-07T19:41:47.646Z,5.23
2018-07-07T19:44:15.175Z,3.20
2018-07-07T19:46:42.570Z,6.70
2018-07-07T19:49:09.967Z,5.20
2018-07-07T19:51:37.428Z,4.73
2018-07-07T19:54:04.902Z,4.90
2018-07-07T19:56:32.362Z,5.10
2018-07-07T19:58:59.837Z,3.37
2018-07-07T20:01:27.342Z,4.70
2018-07-07T20:03:54.779Z,8.43
2018-07-07T20:06:22.234Z,4.30
2018-07-07T20:08:49.600Z,8.30
2018-07-07T20:11:16.987Z,3.00
2018-07-07T20:13:44.499Z,6.37
2018-07-07T20:16:16.396Z,6.43
2018-07-07T20:18:56.339Z,8.57
2018-07-07T20:21:35.331Z,8.80
2018-07-07T20:24:02.791Z,5.63
2018-07-07T20:26:30.157Z,3.00
2018-07-07T20:28:57.530Z,4.77
2018-07-07T20:31:25.053Z,7.77
2018-07-07T20:33:52.484Z,5.07
2018-07-07T20:36:19.997Z,5.53
2018-07-07T20:38:47.426Z,8.00
2018-07-07T20:41:14.783Z,9.60
2018-07-07T20:43:42.351Z,6.07
2018-07-07T20:46:09.790Z,5.63
2018-07-07T20:48:37.299Z,4.43
2018-07-07T20:51:04.977Z,5.20
2018-07-07T20:53:32.443Z,7.03
2018-07-07T20:55:59.896Z,7.37
2018-07-07T20:58:27.283Z,2.60
2018-07-07T21:00:54.735Z,9.50
2018-07-07T21:03:22.122Z,4.03
2018-07-07T21:05:49.610Z,7.73
2018-07-07T21:08:20.326Z,7.03
2018-07-07T21:10:47.827Z,9.83
2018-07-07T21:13:15.275Z,5.47
2018-07-07T21:15:42.751Z,10.17
2018-07-07T21:18:10.184Z,23.77
2018-07-07T21:20:37.603Z,6.97
2018-07-07T21:23:05.046Z,8.47
2018-07-07T21:25:32.515Z,5.00
2018-07-07T21:28:00.041Z,7.77
2018-07-07T21:30:27.487Z,7.80
2018-07-07T21:32:54.939Z,10.77
2018-07-07T21:35:22.394Z,7.77
2018-07-07T21:37:49.891Z,7.40
2018-07-07T21:40:17.335Z,9.47
2018-07-07T21:42:44.843Z,3.23
2018-07-07T21:45:12.322Z,5.87
2018-07-07T21:47:39.754Z,11.57
2018-07-07T21:50:07.375Z,11.07
2018-07-07T21:52:34.787Z,5.13
2018-07-07T21:55:02.315Z,8.87
2018-07-07T21:57:35.994Z,8.80
2018-07-07T22:00:06.080Z,10.00
2018-07-07T22:02:45.290Z,7.07
2018-07-07T22:05:32.499Z,2.50
2018-07-07T22:08:05.183Z,6.70
2018-07-07T22:10:38.925Z,5.40
2018-07-07T22:13:06.591Z,9.40
2018-07-07T22:15:34.818Z,3.93
2018-07-07T22:18:02.223Z,8.40
2018-07-07T22:20:32.304Z,7.20
2018-07-07T22:22:59.728Z,5.70
2018-07-07T22:25:27.207Z,7.00
2018-07-07T22:27:54.688Z,4.13
2018-07-07T22:30:22.167Z,4.03
2018-07-07T22:32:57.388Z,12.33
2018-07-07T22:35:30.666Z,9.37
2018-07-07T22:37:58.102Z,5.23
2018-07-07T22:40:25.643Z,11.17
2018-07-07T22:42:54.068Z,12.90
2018-07-07T22:45:21.491Z,11.03
2018-07-07T22:47:48.854Z,5.37
2018-07-07T22:50:16.248Z,5.77
2018-07-07T22:52:43.732Z,4.93
2018-07-07T22:55:11.171Z,11.10
2018-07-07T22:57:38.652Z,9.20
2018-07-07T23:00:06.147Z,11.23
2018-07-07T23:02:35.144Z,8.27
2018-07-07T23:05:02.968Z,5.90
2018-07-07T23:07:30.724Z,5.83
2018-07-07T23:09:58.487Z,8.20
2018-07-07T23:12:27.421Z,10.67
2018-07-07T23:14:55.138Z,6.70
2018-07-07T23:17:23.032Z,20.10
2018-07-07T23:19:51.156Z,6.57
2018-07-07T23:22:24.455Z,11.87
2018-07-07T23:24:53.127Z,9.63
2018-07-07T23:27:21.128Z,4.87
2018-07-07T23:29:49.189Z,8.73
2018-07-07T23:32:17.792Z,7.50
2018-07-07T23:34:45.628Z,5.47
2018-07-07T23:37:13.661Z,8.40
2018-07-07T23:39:41.497Z,4.53
2018-07-07T23:42:12.827Z,10.73
2018-07-07T23:44:41.494Z,8.17
2018-07-07T23:47:08.964Z,8.57
2018-07-07T23:49:36.419Z,4.50
2018-07-07T23:52:03.911Z,7.77
2018-07-07T23:54:31.391Z,7.57
2018-07-07T23:56:58.878Z,6.77
2018-07-07T23:59:26.281Z,14.83
